sensor_id;sensor_type;location;lat;lon;timestamp;P1;durP1;ratioP1;P2;durP2;ratioP2
41480;SDS011;27217;51.220;5.308;2023-09-07T00:00:12;11.82;;;6.05;;
41480;SDS011;27217;51.220;5.308;2023-09-07T00:02:38;13.70;;;7.18;;
41480;SDS011;27217;51.220;5.308;2023-09-07T00:05:05;9.85;;;6.65;;
41480;SDS011;27217;51.220;5.308;2023-09-07T00:07:32;12.50;;;6.47;;
41480;SDS011;27217;51.220;5.308;2023-09-07T00:09:58;14.55;;;6.20;;
41480;SDS011;27217;51.220;5.308;2023-09-07T00:12:25;10.35;;;6.10;;
41480;SDS011;27217;51.220;5.308;2023-09-07T00:14:51;8.52;;;6.15;;
41480;SDS011;27217;51.220;5.308;2023-09-07T00:17:19;12.50;;;7.40;;
41480;SDS011;27217;51.220;5.308;2023-09-07T00:19:45;11.80;;;6.70;;
41480;SDS011;27217;51.220;5.308;2023-09-07T00:22:13;14.20;;;6.30;;
41480;SDS011;27217;51.220;5.308;2023-09-07T00:24:39;9.23;;;5.90;;
41480;SDS011;27217;51.220;5.308;2023-09-07T00:27:05;10.48;;;6.55;;
41480;SDS011;27217;51.220;5.308;2023-09-07T00:29:32;13.50;;;6.13;;
41480;SDS011;27217;51.220;5.308;2023-09-07T00:32:01;7.45;;;6.15;;
41480;SDS011;27217;51.220;5.308;2023-09-07T00:34:27;11.60;;;6.97;;
41480;SDS011;27217;51.220;5.308;2023-09-07T00:36:53;14.80;;;6.78;;
41480;SDS011;27217;51.220;5.308;2023-09-07T00:39:18;10.63;;;6.18;;
41480;SDS011;27217;51.220;5.308;2023-09-07T00:41:44;12.95;;;7.25;;
41480;SDS011;27217;51.220;5.308;2023-09-07T00:44:10;15.57;;;7.40;;
41480;SDS011;27217;51.220;5.308;2023-09-07T00:46:36;17.30;;;7.03;;
41480;SDS011;27217;51.220;5.308;2023-09-07T00:49:02;12.98;;;6.78;;
41480;SDS011;27217;51.220;5.308;2023-09-07T00:51:29;13.80;;;7.20;;
41480;SDS011;27217;51.220;5.308;2023-09-07T00:53:55;11.48;;;7.38;;
41480;SDS011;27217;51.220;5.308;2023-09-07T00:56:21;10.55;;;7.28;;
41480;SDS011;27217;51.220;5.308;2023-09-07T00:58:49;13.25;;;8.13;;
41480;SDS011;27217;51.220;5.308;2023-09-07T01:01:16;10.93;;;7.47;;
41480;SDS011;27217;51.220;5.308;2023-09-07T01:03:42;14.20;;;8.43;;
41480;SDS011;27217;51.220;5.308;2023-09-07T01:06:12;15.07;;;7.65;;
41480;SDS011;27217;51.220;5.308;2023-09-07T01:08:48;11.98;;;7.60;;
41480;SDS011;27217;51.220;5.308;2023-09-07T01:11:17;12.23;;;7.80;;
41480;SDS011;27217;51.220;5.308;2023-09-07T01:13:45;11.02;;;7.22;;
41480;SDS011;27217;51.220;5.308;2023-09-07T01:16:12;13.73;;;8.05;;
41480;SDS011;27217;51.220;5.308;2023-09-07T01:18:41;12.73;;;8.25;;
41480;SDS011;27217;51.220;5.308;2023-09-07T01:21:07;12.80;;;8.25;;
41480;SDS011;27217;51.220;5.308;2023-09-07T01:23:38;13.00;;;8.02;;
41480;SDS011;27217;51.220;5.308;2023-09-07T01:28:32;13.27;;;7.72;;
41480;SDS011;27217;51.220;5.308;2023-09-07T01:30:58;16.65;;;8.57;;
41480;SDS011;27217;51.220;5.308;2023-09-07T01:33:24;15.98;;;8.38;;
41480;SDS011;27217;51.220;5.308;2023-09-07T01:35:49;14.40;;;8.23;;
41480;SDS011;27217;51.220;5.308;2023-09-07T01:38:15;14.18;;;7.72;;
41480;SDS011;27217;51.220;5.308;2023-09-07T01:40:41;15.07;;;8.43;;
41480;SDS011;27217;51.220;5.308;2023-09-07T01:43:06;11.23;;;7.72;;
41480;SDS011;27217;51.220;5.308;2023-09-07T01:45:32;10.10;;;7.95;;
41480;SDS011;27217;51.220;5.308;2023-09-07T01:47:59;12.50;;;8.43;;
41480;SDS011;27217;51.220;5.308;2023-09-07T01:50:25;17.60;;;9.05;;
41480;SDS011;27217;51.220;5.308;2023-09-07T01:52:51;12.02;;;8.57;;
41480;SDS011;27217;51.220;5.308;2023-09-07T01:55:17;17.60;;;9.18;;
41480;SDS011;27217;51.220;5.308;2023-09-07T01:57:43;23.50;;;9.13;;
41480;SDS011;27217;51.220;5.308;2023-09-07T02:00:10;15.13;;;8.88;;
41480;SDS011;27217;51.220;5.308;2023-09-07T02:02:36;19.95;;;9.30;;
41480;SDS011;27217;51.220;5.308;2023-09-07T02:05:03;13.05;;;8.25;;
41480;SDS011;27217;51.220;5.308;2023-09-07T02:07:29;13.60;;;9.43;;
41480;SDS011;27217;51.220;5.308;2023-09-07T02:09:54;13.27;;;7.80;;
41480;SDS011;27217;51.220;5.308;2023-09-07T02:12:20;13.68;;;9.48;;
41480;SDS011;27217;51.220;5.308;2023-09-07T02:14:46;17.33;;;8.65;;
41480;SDS011;27217;51.220;5.308;2023-09-07T02:17:12;15.27;;;8.90;;
41480;SDS011;27217;51.220;5.308;2023-09-07T02:19:42;19.20;;;8.73;;
41480;SDS011;27217;51.220;5.308;2023-09-07T02:22:09;16.98;;;8.85;;
41480;SDS011;27217;51.220;5.308;2023-09-07T02:24:34;14.82;;;8.70;;
41480;SDS011;27217;51.220;5.308;2023-09-07T02:27:00;15.13;;;9.50;;
41480;SDS011;27217;51.220;5.308;2023-09-07T02:29:26;13.63;;;8.77;;
41480;SDS011;27217;51.220;5.308;2023-09-07T02:31:52;13.25;;;8.95;;
41480;SDS011;27217;51.220;5.308;2023-09-07T02:34:17;15.18;;;9.65;;
41480;SDS011;27217;51.220;5.308;2023-09-07T02:36:46;13.60;;;9.38;;
41480;SDS011;27217;51.220;5.308;2023-09-07T02:39:12;13.57;;;9.27;;
41480;SDS011;27217;51.220;5.308;2023-09-07T02:41:38;13.45;;;9.48;;
41480;SDS011;27217;51.220;5.308;2023-09-07T02:44:04;16.13;;;9.95;;
41480;SDS011;27217;51.220;5.308;2023-09-07T02:46:30;18.98;;;10.70;;
41480;SDS011;27217;51.220;5.308;2023-09-07T02:48:56;18.70;;;10.90;;
41480;SDS011;27217;51.220;5.308;2023-09-07T02:51:23;16.13;;;9.75;;
41480;SDS011;27217;51.220;5.308;2023-09-07T02:53:49;17.95;;;10.57;;
41480;SDS011;27217;51.220;5.308;2023-09-07T02:56:16;14.80;;;9.63;;
41480;SDS011;27217;51.220;5.308;2023-09-07T02:58:41;15.73;;;10.57;;
41480;SDS011;27217;51.220;5.308;2023-09-07T03:01:07;18.70;;;12.40;;
41480;SDS011;27217;51.220;5.308;2023-09-07T03:03:36;23.45;;;12.90;;
41480;SDS011;27217;51.220;5.308;2023-09-07T03:06:10;18.08;;;12.88;;
41480;SDS011;27217;51.220;5.308;2023-09-07T03:08:36;24.13;;;14.80;;
41480;SDS011;27217;51.220;5.308;2023-09-07T03:11:03;20.40;;;12.57;;
41480;SDS011;27217;51.220;5.308;2023-09-07T03:13:29;24.70;;;12.82;;
41480;SDS011;27217;51.220;5.308;2023-09-07T03:15:55;18.35;;;12.10;;
41480;SDS011;27217;51.220;5.308;2023-09-07T03:18:21;21.58;;;12.02;;
41480;SDS011;27217;51.220;5.308;2023-09-07T03:20:47;19.60;;;11.98;;
41480;SDS011;27217;51.220;5.308;2023-09-07T03:23:13;17.50;;;11.00;;
41480;SDS011;27217;51.220;5.308;2023-09-07T03:25:39;20.15;;;12.18;;
41480;SDS011;27217;51.220;5.308;2023-09-07T03:28:05;14.73;;;10.90;;
41480;SDS011;27217;51.220;5.308;2023-09-07T03:30:31;19.88;;;11.82;;
41480;SDS011;27217;51.220;5.308;2023-09-07T03:32:57;17.20;;;11.00;;
41480;SDS011;27217;51.220;5.308;2023-09-07T03:35:23;16.40;;;10.63;;
41480;SDS011;27217;51.220;5.308;2023-09-07T03:37:49;16.88;;;10.38;;
41480;SDS011;27217;51.220;5.308;2023-09-07T03:40:15;18.08;;;11.63;;
41480;SDS011;27217;51.220;5.308;2023-09-07T03:42:40;19.40;;;11.32;;
41480;SDS011;27217;51.220;5.308;2023-09-07T03:45:07;17.85;;;11.40;;
41480;SDS011;27217;51.220;5.308;2023-09-07T03:47:33;18.42;;;12.02;;
41480;SDS011;27217;51.220;5.308;2023-09-07T03:49:59;17.42;;;11.20;;
41480;SDS011;27217;51.220;5.308;2023-09-07T03:52:25;17.95;;;12.55;;
41480;SDS011;27217;51.220;5.308;2023-09-07T03:54:55;20.98;;;11.60;;
41480;SDS011;27217;51.220;5.308;2023-09-07T03:57:22;22.52;;;11.30;;
41480;SDS011;27217;51.220;5.308;2023-09-07T03:59:49;17.33;;;11.38;;
41480;SDS011;27217;51.220;5.308;2023-09-07T04:02:14;22.88;;;12.10;;
41480;SDS011;27217;51.220;5.308;2023-09-07T04:04:42;21.00;;;11.85;;
41480;SDS011;27217;51.220;5.308;2023-09-07T04:07:08;22.98;;;12.23;;
41480;SDS011;27217;51.220;5.308;2023-09-07T04:09:34;25.45;;;12.60;;
41480;SDS011;27217;51.220;5.308;2023-09-07T04:12:00;21.42;;;12.95;;
41480;SDS011;27217;51.220;5.308;2023-09-07T04:14:28;22.80;;;14.30;;
41480;SDS011;27217;51.220;5.308;2023-09-07T04:16:55;23.75;;;13.50;;
41480;SDS011;27217;51.220;5.308;2023-09-07T04:19:21;20.17;;;12.27;;
41480;SDS011;27217;51.220;5.308;2023-09-07T04:21:46;21.33;;;13.50;;
41480;SDS011;27217;51.220;5.308;2023-09-07T04:24:12;27.25;;;14.18;;
41480;SDS011;27217;51.220;5.308;2023-09-07T04:26:38;24.55;;;14.75;;
41480;SDS011;27217;51.220;5.308;2023-09-07T04:29:03;28.08;;;13.45;;
41480;SDS011;27217;51.220;5.308;2023-09-07T04:31:31;20.48;;;14.07;;
41480;SDS011;27217;51.220;5.308;2023-09-07T04:33:57;24.67;;;13.70;;
41480;SDS011;27217;51.220;5.308;2023-09-07T04:36:22;25.15;;;13.65;;
41480;SDS011;27217;51.220;5.308;2023-09-07T04:38:48;27.42;;;14.45;;
41480;SDS011;27217;51.220;5.308;2023-09-07T04:41:14;26.42;;;14.32;;
41480;SDS011;27217;51.220;5.308;2023-09-07T04:43:41;25.98;;;14.25;;
41480;SDS011;27217;51.220;5.308;2023-09-07T04:46:11;25.25;;;14.43;;
41480;SDS011;27217;51.220;5.308;2023-09-07T04:48:37;25.00;;;15.07;;
41480;SDS011;27217;51.220;5.308;2023-09-07T04:51:04;23.42;;;15.20;;
41480;SDS011;27217;51.220;5.308;2023-09-07T04:53:34;26.65;;;14.18;;
41480;SDS011;27217;51.220;5.308;2023-09-07T04:56:05;22.67;;;13.13;;
41480;SDS011;27217;51.220;5.308;2023-09-07T04:58:33;26.35;;;13.40;;
41480;SDS011;27217;51.220;5.308;2023-09-07T05:01:06;27.60;;;14.43;;
41480;SDS011;27217;51.220;5.308;2023-09-07T05:03:35;25.98;;;12.48;;
41480;SDS011;27217;51.220;5.308;2023-09-07T05:06:01;20.77;;;12.13;;
41480;SDS011;27217;51.220;5.308;2023-09-07T05:08:29;23.60;;;13.35;;
41480;SDS011;27217;51.220;5.308;2023-09-07T05:10:55;24.92;;;12.98;;
41480;SDS011;27217;51.220;5.308;2023-09-07T05:13:23;19.63;;;12.35;;
41480;SDS011;27217;51.220;5.308;2023-09-07T05:15:49;20.92;;;13.68;;
41480;SDS011;27217;51.220;5.308;2023-09-07T05:18:16;23.65;;;13.52;;
41480;SDS011;27217;51.220;5.308;2023-09-07T05:20:43;23.25;;;13.23;;
41480;SDS011;27217;51.220;5.308;2023-09-07T05:23:18;27.63;;;12.77;;
41480;SDS011;27217;51.220;5.308;2023-09-07T05:28:15;29.77;;;13.50;;
41480;SDS011;27217;51.220;5.308;2023-09-07T05:30:42;23.67;;;12.98;;
41480;SDS011;27217;51.220;5.308;2023-09-07T05:33:11;24.00;;;13.73;;
41480;SDS011;27217;51.220;5.308;2023-09-07T05:35:40;23.65;;;12.30;;
41480;SDS011;27217;51.220;5.308;2023-09-07T05:38:07;22.90;;;12.55;;
41480;SDS011;27217;51.220;5.308;2023-09-07T05:40:34;23.05;;;13.55;;
41480;SDS011;27217;51.220;5.308;2023-09-07T05:43:01;30.20;;;14.45;;
41480;SDS011;27217;51.220;5.308;2023-09-07T05:45:29;30.30;;;13.15;;
41480;SDS011;27217;51.220;5.308;2023-09-07T05:47:55;24.85;;;13.68;;
41480;SDS011;27217;51.220;5.308;2023-09-07T05:50:21;29.92;;;13.63;;
41480;SDS011;27217;51.220;5.308;2023-09-07T05:52:47;30.40;;;13.93;;
41480;SDS011;27217;51.220;5.308;2023-09-07T05:55:12;35.60;;;14.05;;
41480;SDS011;27217;51.220;5.308;2023-09-07T05:57:38;30.27;;;14.05;;
41480;SDS011;27217;51.220;5.308;2023-09-07T06:00:04;30.88;;;14.38;;
41480;SDS011;27217;51.220;5.308;2023-09-07T06:02:31;27.17;;;13.10;;
41480;SDS011;27217;51.220;5.308;2023-09-07T06:04:56;26.02;;;13.38;;
41480;SDS011;27217;51.220;5.308;2023-09-07T06:07:22;31.80;;;13.30;;
41480;SDS011;27217;51.220;5.308;2023-09-07T06:09:48;32.13;;;13.07;;
41480;SDS011;27217;51.220;5.308;2023-09-07T06:12:13;22.73;;;11.98;;
41480;SDS011;27217;51.220;5.308;2023-09-07T06:14:39;28.15;;;11.60;;
41480;SDS011;27217;51.220;5.308;2023-09-07T06:17:05;26.13;;;11.63;;
41480;SDS011;27217;51.220;5.308;2023-09-07T06:19:31;24.75;;;12.45;;
41480;SDS011;27217;51.220;5.308;2023-09-07T06:21:58;23.27;;;11.50;;
41480;SDS011;27217;51.220;5.308;2023-09-07T06:24:23;20.70;;;10.65;;
41480;SDS011;27217;51.220;5.308;2023-09-07T06:26:49;20.58;;;10.48;;
41480;SDS011;27217;51.220;5.308;2023-09-07T06:29:15;19.00;;;11.13;;
41480;SDS011;27217;51.220;5.308;2023-09-07T06:31:41;15.88;;;11.05;;
41480;SDS011;27217;51.220;5.308;2023-09-07T06:34:06;22.45;;;11.30;;
41480;SDS011;27217;51.220;5.308;2023-09-07T06:36:32;16.08;;;10.45;;
41480;SDS011;27217;51.220;5.308;2023-09-07T06:38:58;13.38;;;9.82;;
41480;SDS011;27217;51.220;5.308;2023-09-07T06:41:24;14.48;;;10.70;;
41480;SDS011;27217;51.220;5.308;2023-09-07T06:43:50;13.75;;;9.52;;
41480;SDS011;27217;51.220;5.308;2023-09-07T06:46:15;18.52;;;9.32;;
41480;SDS011;27217;51.220;5.308;2023-09-07T06:48:43;13.40;;;8.95;;
41480;SDS011;27217;51.220;5.308;2023-09-07T06:51:10;18.13;;;9.40;;
41480;SDS011;27217;51.220;5.308;2023-09-07T06:53:35;17.23;;;9.40;;
41480;SDS011;27217;51.220;5.308;2023-09-07T06:56:02;15.85;;;9.90;;
41480;SDS011;27217;51.220;5.308;2023-09-07T06:58:28;15.90;;;9.13;;
41480;SDS011;27217;51.220;5.308;2023-09-07T07:00:58;15.50;;;8.95;;
41480;SDS011;27217;51.220;5.308;2023-09-07T07:03:27;21.90;;;10.95;;
41480;SDS011;27217;51.220;5.308;2023-09-07T07:05:54;13.47;;;8.90;;
41480;SDS011;27217;51.220;5.308;2023-09-07T07:08:20;11.52;;;8.05;;
41480;SDS011;27217;51.220;5.308;2023-09-07T07:10:46;13.40;;;9.18;;
41480;SDS011;27217;51.220;5.308;2023-09-07T07:13:12;11.45;;;7.85;;
41480;SDS011;27217;51.220;5.308;2023-09-07T07:15:38;12.77;;;8.40;;
41480;SDS011;27217;51.220;5.308;2023-09-07T07:18:04;23.10;;;7.93;;
41480;SDS011;27217;51.220;5.308;2023-09-07T07:20:37;14.65;;;8.25;;
41480;SDS011;27217;51.220;5.308;2023-09-07T07:23:03;12.52;;;7.20;;
41480;SDS011;27217;51.220;5.308;2023-09-07T07:25:31;14.35;;;8.10;;
41480;SDS011;27217;51.220;5.308;2023-09-07T07:27:58;11.90;;;7.55;;
41480;SDS011;27217;51.220;5.308;2023-09-07T07:30:28;10.82;;;6.80;;
41480;SDS011;27217;51.220;5.308;2023-09-07T07:32:56;9.23;;;7.03;;
41480;SDS011;27217;51.220;5.308;2023-09-07T07:35:22;11.65;;;7.25;;
41480;SDS011;27217;51.220;5.308;2023-09-07T07:37:51;9.68;;;6.15;;
41480;SDS011;27217;51.220;5.308;2023-09-07T07:40:17;13.05;;;6.60;;
41480;SDS011;27217;51.220;5.308;2023-09-07T07:42:46;13.07;;;6.65;;
41480;SDS011;27217;51.220;5.308;2023-09-07T07:45:13;11.70;;;6.95;;
41480;SDS011;27217;51.220;5.308;2023-09-07T07:47:45;12.52;;;6.80;;
41480;SDS011;27217;51.220;5.308;2023-09-07T07:50:11;13.65;;;6.93;;
41480;SDS011;27217;51.220;5.308;2023-09-07T07:52:37;9.48;;;6.57;;
41480;SDS011;27217;51.220;5.308;2023-09-07T07:55:02;13.18;;;6.55;;
41480;SDS011;27217;51.220;5.308;2023-09-07T07:57:28;11.63;;;6.65;;
41480;SDS011;27217;51.220;5.308;2023-09-07T07:59:55;13.25;;;6.55;;
41480;SDS011;27217;51.220;5.308;2023-09-07T08:02:21;10.73;;;5.68;;
41480;SDS011;27217;51.220;5.308;2023-09-07T08:04:47;11.55;;;5.65;;
41480;SDS011;27217;51.220;5.308;2023-09-07T08:07:12;14.30;;;5.97;;
41480;SDS011;27217;51.220;5.308;2023-09-07T08:09:38;11.00;;;6.63;;
41480;SDS011;27217;51.220;5.308;2023-09-07T08:12:07;11.30;;;6.70;;
41480;SDS011;27217;51.220;5.308;2023-09-07T08:14:33;12.07;;;6.03;;
41480;SDS011;27217;51.220;5.308;2023-09-07T08:16:59;12.95;;;6.00;;
41480;SDS011;27217;51.220;5.308;2023-09-07T08:19:26;11.48;;;6.72;;
41480;SDS011;27217;51.220;5.308;2023-09-07T08:21:53;9.85;;;5.38;;
41480;SDS011;27217;51.220;5.308;2023-09-07T08:24:18;7.97;;;5.28;;
41480;SDS011;27217;51.220;5.308;2023-09-07T08:26:44;16.33;;;6.28;;
41480;SDS011;27217;51.220;5.308;2023-09-07T08:29:10;14.43;;;5.75;;
41480;SDS011;27217;51.220;5.308;2023-09-07T08:31:36;10.20;;;6.53;;
41480;SDS011;27217;51.220;5.308;2023-09-07T08:34:06;14.60;;;6.18;;
41480;SDS011;27217;51.220;5.308;2023-09-07T08:36:36;7.80;;;5.38;;
41480;SDS011;27217;51.220;5.308;2023-09-07T08:39:03;11.85;;;5.53;;
41480;SDS011;27217;51.220;5.308;2023-09-07T08:41:38;10.27;;;5.32;;
41480;SDS011;27217;51.220;5.308;2023-09-07T08:44:08;8.35;;;5.15;;
41480;SDS011;27217;51.220;5.308;2023-09-07T08:46:36;9.00;;;5.43;;
41480;SDS011;27217;51.220;5.308;2023-09-07T08:49:02;13.27;;;5.55;;
41480;SDS011;27217;51.220;5.308;2023-09-07T08:51:29;12.48;;;5.63;;
41480;SDS011;27217;51.220;5.308;2023-09-07T08:53:57;10.45;;;6.15;;
41480;SDS011;27217;51.220;5.308;2023-09-07T08:56:23;9.13;;;5.50;;
41480;SDS011;27217;51.220;5.308;2023-09-07T08:58:49;8.45;;;4.93;;
41480;SDS011;27217;51.220;5.308;2023-09-07T09:01:15;7.13;;;5.05;;
41480;SDS011;27217;51.220;5.308;2023-09-07T09:03:42;8.38;;;5.43;;
41480;SDS011;27217;51.220;5.308;2023-09-07T09:06:08;16.88;;;4.97;;
41480;SDS011;27217;51.220;5.308;2023-09-07T09:08:48;7.18;;;5.28;;
41480;SDS011;27217;51.220;5.308;2023-09-07T09:11:15;10.23;;;5.70;;
41480;SDS011;27217;51.220;5.308;2023-09-07T09:13:42;13.80;;;5.60;;
41480;SDS011;27217;51.220;5.308;2023-09-07T09:16:09;11.02;;;6.07;;
41480;SDS011;27217;51.220;5.308;2023-09-07T09:18:35;16.52;;;5.60;;
41480;SDS011;27217;51.220;5.308;2023-09-07T09:21:01;9.77;;;5.03;;
41480;SDS011;27217;51.220;5.308;2023-09-07T09:23:34;11.43;;;5.20;;
41480;SDS011;27217;51.220;5.308;2023-09-07T09:26:01;7.78;;;4.68;;
41480;SDS011;27217;51.220;5.308;2023-09-07T09:28:28;10.43;;;4.45;;
41480;SDS011;27217;51.220;5.308;2023-09-07T09:30:56;7.22;;;4.70;;
41480;SDS011;27217;51.220;5.308;2023-09-07T09:33:29;12.60;;;4.40;;
41480;SDS011;27217;51.220;5.308;2023-09-07T09:35:56;5.35;;;4.38;;
41480;SDS011;27217;51.220;5.308;2023-09-07T09:38:23;9.27;;;4.35;;
41480;SDS011;27217;51.220;5.308;2023-09-07T09:40:49;10.50;;;4.10;;
41480;SDS011;27217;51.220;5.308;2023-09-07T09:43:15;6.70;;;3.95;;
41480;SDS011;27217;51.220;5.308;2023-09-07T09:45:41;6.07;;;4.35;;
41480;SDS011;27217;51.220;5.308;2023-09-07T09:48:06;6.18;;;4.07;;
41480;SDS011;27217;51.220;5.308;2023-09-07T09:50:33;5.22;;;4.07;;
41480;SDS011;27217;51.220;5.308;2023-09-07T09:53:03;8.13;;;3.90;;
41480;SDS011;27217;51.220;5.308;2023-09-07T09:55:31;7.15;;;4.20;;
41480;SDS011;27217;51.220;5.308;2023-09-07T09:57:58;5.60;;;3.85;;
41480;SDS011;27217;51.220;5.308;2023-09-07T10:00:24;8.38;;;4.22;;
41480;SDS011;27217;51.220;5.308;2023-09-07T10:05:52;8.95;;;4.35;;
41480;SDS011;27217;51.220;5.308;2023-09-07T10:08:18;6.30;;;4.65;;
41480;SDS011;27217;51.220;5.308;2023-09-07T10:10:48;8.98;;;3.83;;
41480;SDS011;27217;51.220;5.308;2023-09-07T10:13:28;8.68;;;4.00;;
41480;SDS011;27217;51.220;5.308;2023-09-07T10:16:01;9.45;;;3.58;;
41480;SDS011;27217;51.220;5.308;2023-09-07T10:18:33;6.63;;;4.30;;
41480;SDS011;27217;51.220;5.308;2023-09-07T10:21:03;4.53;;;3.83;;
41480;SDS011;27217;51.220;5.308;2023-09-07T10:23:36;4.40;;;3.63;;
41480;SDS011;27217;51.220;5.308;2023-09-07T10:26:10;7.25;;;3.45;;
41480;SDS011;27217;51.220;5.308;2023-09-07T10:28:37;7.93;;;3.95;;
41480;SDS011;27217;51.220;5.308;2023-09-07T10:31:04;6.72;;;3.17;;
41480;SDS011;27217;51.220;5.308;2023-09-07T10:33:32;6.82;;;4.03;;
41480;SDS011;27217;51.220;5.308;2023-09-07T10:35:59;6.88;;;3.55;;
41480;SDS011;27217;51.220;5.308;2023-09-07T10:38:28;8.55;;;3.67;;
41480;SDS011;27217;51.220;5.308;2023-09-07T10:40:58;6.90;;;3.35;;
41480;SDS011;27217;51.220;5.308;2023-09-07T10:43:25;9.27;;;3.72;;
41480;SDS011;27217;51.220;5.308;2023-09-07T10:45:57;9.77;;;3.42;;
41480;SDS011;27217;51.220;5.308;2023-09-07T10:48:25;10.07;;;3.83;;
41480;SDS011;27217;51.220;5.308;2023-09-07T10:50:53;9.57;;;3.78;;
41480;SDS011;27217;51.220;5.308;2023-09-07T10:56:05;6.22;;;3.33;;
41480;SDS011;27217;51.220;5.308;2023-09-07T10:58:32;7.65;;;3.30;;
41480;SDS011;27217;51.220;5.308;2023-09-07T11:00:59;8.00;;;3.40;;
41480;SDS011;27217;51.220;5.308;2023-09-07T11:03:26;7.50;;;3.15;;
41480;SDS011;27217;51.220;5.308;2023-09-07T11:05:57;8.50;;;2.90;;
41480;SDS011;27217;51.220;5.308;2023-09-07T11:08:45;8.13;;;2.92;;
41480;SDS011;27217;51.220;5.308;2023-09-07T11:11:11;6.13;;;2.80;;
41480;SDS011;27217;51.220;5.308;2023-09-07T11:13:38;6.88;;;3.40;;
41480;SDS011;27217;51.220;5.308;2023-09-07T11:16:06;5.18;;;3.38;;
41480;SDS011;27217;51.220;5.308;2023-09-07T11:18:33;9.52;;;3.17;;
41480;SDS011;27217;51.220;5.308;2023-09-07T11:21:02;6.97;;;2.72;;
41480;SDS011;27217;51.220;5.308;2023-09-07T11:23:32;5.40;;;3.10;;
41480;SDS011;27217;51.220;5.308;2023-09-07T11:26:07;4.28;;;2.58;;
41480;SDS011;27217;51.220;5.308;2023-09-07T11:28:33;4.00;;;2.58;;
41480;SDS011;27217;51.220;5.308;2023-09-07T11:30:59;3.70;;;2.90;;
41480;SDS011;27217;51.220;5.308;2023-09-07T11:33:25;4.50;;;2.70;;
41480;SDS011;27217;51.220;5.308;2023-09-07T11:35:52;7.90;;;2.58;;
41480;SDS011;27217;51.220;5.308;2023-09-07T11:38:21;3.55;;;2.22;;
41480;SDS011;27217;51.220;5.308;2023-09-07T11:40:47;5.18;;;2.50;;
41480;SDS011;27217;51.220;5.308;2023-09-07T11:43:16;7.55;;;3.28;;
41480;SDS011;27217;51.220;5.308;2023-09-07T11:45:45;11.07;;;2.63;;
41480;SDS011;27217;51.220;5.308;2023-09-07T11:48:11;4.32;;;2.50;;
41480;SDS011;27217;51.220;5.308;2023-09-07T11:50:37;5.00;;;2.45;;
41480;SDS011;27217;51.220;5.308;2023-09-07T11:53:05;7.25;;;2.50;;
41480;SDS011;27217;51.220;5.308;2023-09-07T11:55:32;3.90;;;2.20;;
41480;SDS011;27217;51.220;5.308;2023-09-07T11:57:58;2.38;;;2.17;;
41480;SDS011;27217;51.220;5.308;2023-09-07T12:00:24;4.93;;;2.33;;
41480;SDS011;27217;51.220;5.308;2023-09-07T12:02:50;6.97;;;2.45;;
41480;SDS011;27217;51.220;5.308;2023-09-07T12:05:15;6.20;;;2.70;;
41480;SDS011;27217;51.220;5.308;2023-09-07T12:07:43;4.63;;;2.25;;
41480;SDS011;27217;51.220;5.308;2023-09-07T12:10:08;3.63;;;2.30;;
41480;SDS011;27217;51.220;5.308;2023-09-07T12:12:42;4.68;;;2.20;;
41480;SDS011;27217;51.220;5.308;2023-09-07T12:15:09;6.05;;;2.17;;
41480;SDS011;27217;51.220;5.308;2023-09-07T12:17:38;2.95;;;2.33;;
41480;SDS011;27217;51.220;5.308;2023-09-07T12:20:04;4.97;;;2.80;;
41480;SDS011;27217;51.220;5.308;2023-09-07T12:22:34;2.53;;;2.33;;
41480;SDS011;27217;51.220;5.308;2023-09-07T12:25:01;5.32;;;2.30;;
41480;SDS011;27217;51.220;5.308;2023-09-07T12:27:27;3.08;;;2.42;;
41480;SDS011;27217;51.220;5.308;2023-09-07T12:29:53;3.25;;;1.95;;
41480;SDS011;27217;51.220;5.308;2023-09-07T12:32:18;8.95;;;2.22;;
41480;SDS011;27217;51.220;5.308;2023-09-07T12:34:44;8.30;;;2.53;;
41480;SDS011;27217;51.220;5.308;2023-09-07T12:37:10;5.43;;;2.95;;
41480;SDS011;27217;51.220;5.308;2023-09-07T12:39:35;7.20;;;2.55;;
41480;SDS011;27217;51.220;5.308;2023-09-07T12:42:01;4.07;;;2.50;;
41480;SDS011;27217;51.220;5.308;2023-09-07T12:44:28;5.43;;;2.53;;
41480;SDS011;27217;51.220;5.308;2023-09-07T12:46:54;15.85;;;2.80;;
41480;SDS011;27217;51.220;5.308;2023-09-07T12:49:19;5.93;;;2.30;;
41480;SDS011;27217;51.220;5.308;2023-09-07T12:51:45;6.05;;;2.45;;
41480;SDS011;27217;51.220;5.308;2023-09-07T12:54:12;5.93;;;2.20;;
41480;SDS011;27217;51.220;5.308;2023-09-07T12:56:37;5.20;;;2.88;;
41480;SDS011;27217;51.220;5.308;2023-09-07T12:59:03;3.05;;;2.30;;
41480;SDS011;27217;51.220;5.308;2023-09-07T13:01:29;2.80;;;2.17;;
41480;SDS011;27217;51.220;5.308;2023-09-07T13:03:56;5.20;;;2.47;;
41480;SDS011;27217;51.220;5.308;2023-09-07T13:06:21;3.42;;;2.13;;
41480;SDS011;27217;51.220;5.308;2023-09-07T13:08:47;12.57;;;2.63;;
41480;SDS011;27217;51.220;5.308;2023-09-07T13:11:13;4.10;;;2.58;;
41480;SDS011;27217;51.220;5.308;2023-09-07T13:13:42;2.90;;;2.50;;
41480;SDS011;27217;51.220;5.308;2023-09-07T13:16:08;5.95;;;2.88;;
41480;SDS011;27217;51.220;5.308;2023-09-07T13:18:33;5.03;;;2.55;;
41480;SDS011;27217;51.220;5.308;2023-09-07T13:20:59;6.28;;;2.40;;
41480;SDS011;27217;51.220;5.308;2023-09-07T13:23:26;6.65;;;2.45;;
41480;SDS011;27217;51.220;5.308;2023-09-07T13:25:52;9.25;;;2.30;;
41480;SDS011;27217;51.220;5.308;2023-09-07T13:28:19;9.18;;;2.83;;
41480;SDS011;27217;51.220;5.308;2023-09-07T13:30:44;4.43;;;2.40;;
41480;SDS011;27217;51.220;5.308;2023-09-07T13:33:10;6.75;;;2.90;;
41480;SDS011;27217;51.220;5.308;2023-09-07T13:35:36;4.20;;;2.35;;
41480;SDS011;27217;51.220;5.308;2023-09-07T13:38:02;7.25;;;2.30;;
41480;SDS011;27217;51.220;5.308;2023-09-07T13:40:28;8.05;;;2.50;;
41480;SDS011;27217;51.220;5.308;2023-09-07T13:42:54;6.50;;;2.42;;
41480;SDS011;27217;51.220;5.308;2023-09-07T13:45:21;9.40;;;3.17;;
41480;SDS011;27217;51.220;5.308;2023-09-07T13:47:47;2.60;;;2.33;;
41480;SDS011;27217;51.220;5.308;2023-09-07T13:50:13;8.40;;;3.67;;
41480;SDS011;27217;51.220;5.308;2023-09-07T13:52:39;10.07;;;2.78;;
41480;SDS011;27217;51.220;5.308;2023-09-07T13:55:05;5.40;;;2.72;;
41480;SDS011;27217;51.220;5.308;2023-09-07T13:57:32;4.93;;;2.70;;
41480;SDS011;27217;51.220;5.308;2023-09-07T13:59:58;16.48;;;3.08;;
41480;SDS011;27217;51.220;5.308;2023-09-07T14:02:24;4.15;;;2.50;;
41480;SDS011;27217;51.220;5.308;2023-09-07T14:04:49;3.90;;;2.80;;
41480;SDS011;27217;51.220;5.308;2023-09-07T14:07:15;4.20;;;2.60;;
41480;SDS011;27217;51.220;5.308;2023-09-07T14:09:41;9.27;;;2.20;;
41480;SDS011;27217;51.220;5.308;2023-09-07T14:12:07;4.88;;;3.33;;
41480;SDS011;27217;51.220;5.308;2023-09-07T14:14:32;8.02;;;2.97;;
41480;SDS011;27217;51.220;5.308;2023-09-07T14:16:58;5.95;;;2.70;;
41480;SDS011;27217;51.220;5.308;2023-09-07T14:19:25;5.15;;;2.60;;
41480;SDS011;27217;51.220;5.308;2023-09-07T14:21:55;3.58;;;2.53;;
41480;SDS011;27217;51.220;5.308;2023-09-07T14:24:22;4.03;;;2.75;;
41480;SDS011;27217;51.220;5.308;2023-09-07T14:26:48;8.55;;;3.00;;
41480;SDS011;27217;51.220;5.308;2023-09-07T14:29:14;5.15;;;3.00;;
41480;SDS011;27217;51.220;5.308;2023-09-07T14:31:39;7.72;;;2.60;;
41480;SDS011;27217;51.220;5.308;2023-09-07T14:34:07;12.68;;;3.13;;
41480;SDS011;27217;51.220;5.308;2023-09-07T14:36:33;7.18;;;2.42;;
41480;SDS011;27217;51.220;5.308;2023-09-07T14:38:59;4.93;;;2.45;;
41480;SDS011;27217;51.220;5.308;2023-09-07T14:41:24;4.88;;;2.30;;
41480;SDS011;27217;51.220;5.308;2023-09-07T14:43:50;3.17;;;2.42;;